Time;durP1;ratioP1;P1;durP2;ratioP2;P2;SDS_P1;SDS_P2;PMS_P1;PMS_P2;Temp;Humidity;BMP_temperature;BMP_pressure;BME280_temperature;BME280_humidity;BME280_pressure;Samples;Min_cycle;Max_cycle;Signal;HPM_P1;HPM_P2
2023/01/18 00:00:31;;;;;;;7.75;4.43;;;-1.40;99.90;;;;;;5092451;28;20078;-44
2023/01/18 00:02:57;;;;;;;8.52;4.28;;;-1.30;99.90;;;;;;5082780;28;20083;-45
2023/01/18 00:05:24;;;;;;;9.63;3.65;;;-1.40;99.90;;;;;;5084850;28;20150;-44
2023/01/18 00:07:51;;;;;;;6.68;3.63;;;-1.50;99.90;;;;;;5058133;28;20040;-45
2023/01/18 00:10:17;;;;;;;6.30;4.10;;;-1.40;99.90;;;;;;5098330;28;20489;-45
2023/01/18 00:12:44;;;;;;;5.75;4.25;;;-1.40;99.90;;;;;;5096524;28;20051;-46
2023/01/18 00:15:10;;;;;;;6.72;4.00;;;-1.40;99.90;;;;;;5094716;28;20043;-45
2023/01/18 00:17:46;;;;;;;8.82;4.72;;;-1.30;99.90;;;;;;5078634;28;20481;-46
2023/01/18 00:20:15;;;;;;;7.57;4.00;;;-1.30;99.90;;;;;;5096563;28;20052;-44
2023/01/18 00:22:41;;;;;;;6.10;3.90;;;-1.30;99.90;;;;;;5096489;28;20067;-50
2023/01/18 00:25:09;;;;;;;6.47;3.72;;;-1.40;99.90;;;;;;5078468;28;20048;-45
2023/01/18 00:27:36;;;;;;;9.98;3.95;;;-1.30;99.90;;;;;;5079484;28;20047;-45
2023/01/18 00:30:07;;;;;;;7.53;4.43;;;-1.40;99.90;;;;;;5078917;28;20382;-45
2023/01/18 00:32:33;;;;;;;9.25;4.45;;;-1.40;99.90;;;;;;5096504;28;20088;-46
2023/01/18 00:34:59;;;;;;;7.68;4.43;;;-1.40;99.90;;;;;;5096159;28;20055;-45
2023/01/18 00:37:28;;;;;;;7.47;4.65;;;-1.40;99.90;;;;;;5096827;28;20137;-45
2023/01/18 00:39:53;;;;;;;7.60;4.40;;;-1.50;99.90;;;;;;5095316;28;20058;-46
2023/01/18 00:45:04;;;;;;;8.43;4.43;;;-1.50;99.90;;;;;;5096196;28;20089;-44
2023/01/18 00:47:29;;;;;;;8.35;3.90;;;-1.50;99.90;;;;;;5096739;28;20120;-44
2023/01/18 00:49:55;;;;;;;9.10;4.38;;;-1.60;99.90;;;;;;5096403;28;20063;-44
2023/01/18 00:52:21;;;;;;;12.73;5.22;;;-1.50;99.90;;;;;;5096047;28;20478;-44
2023/01/18 00:54:46;;;;;;;8.68;4.57;;;-1.60;99.90;;;;;;5096425;28;20716;-45
2023/01/18 00:57:12;;;;;;;6.10;3.90;;;-1.60;99.90;;;;;;5097187;28;20047;-47
2023/01/18 00:59:38;;;;;;;5.85;4.13;;;-1.60;99.90;;;;;;5077973;28;20074;-45
2023/01/18 01:02:04;;;;;;;10.13;4.60;;;-1.60;99.90;;;;;;5096099;28;20055;-45
2023/01/18 01:07:14;;;;;;;6.45;3.97;;;-1.60;99.90;;;;;;5096274;28;20333;-47
2023/01/18 01:09:41;;;;;;;9.52;4.28;;;-1.50;99.90;;;;;;5077971;28;20048;-46
2023/01/18 01:26:09;;;;;;;7.15;3.78;;;-1.70;99.90;;;;;;5095366;28;20203;-45
2023/01/18 01:28:36;;;;;;;7.93;3.55;;;-1.60;99.90;;;;;;5096507;28;20051;-47
2023/01/18 01:31:04;;;;;;;8.07;3.95;;;-1.60;99.90;;;;;;5096630;28;20058;-46
2023/01/18 01:33:31;;;;;;;8.27;4.28;;;-1.60;99.90;;;;;;5095195;28;20475;-45
2023/01/18 01:35:58;;;;;;;10.25;4.32;;;-1.60;99.90;;;;;;5077490;28;20059;-46
2023/01/18 01:38:24;;;;;;;5.05;3.67;;;-1.50;99.90;;;;;;5095707;28;20051;-46
2023/01/18 01:41:08;;;;;;;8.40;3.70;;;-1.40;99.90;;;;;;5096367;28;20039;-48
2023/01/18 01:43:37;;;;;;;6.47;3.58;;;-1.50;99.90;;;;;;5095377;28;20462;-49
2023/01/18 01:46:11;;;;;;;7.22;3.10;;;-1.40;99.90;;;;;;5095566;28;20055;-46
2023/01/18 01:48:36;;;;;;;5.63;3.35;;;-1.40;99.90;;;;;;5096295;28;20104;-45
2023/01/18 01:51:02;;;;;;;5.28;2.63;;;-1.30;99.90;;;;;;5095413;28;20043;-45
2023/01/18 01:53:28;;;;;;;8.75;3.13;;;-1.30;99.90;;;;;;5095679;28;20051;-46
2023/01/18 01:55:54;;;;;;;5.47;2.90;;;-1.30;99.90;;;;;;5095051;28;20066;-50
2023/01/18 01:58:27;;;;;;;6.57;2.53;;;-1.20;99.90;;;;;;5095776;28;20139;-46
2023/01/18 02:00:53;;;;;;;6.20;3.17;;;-1.10;99.90;;;;;;5095725;28;20656;-46
2023/01/18 02:03:21;;;;;;;8.43;3.13;;;-1.10;99.90;;;;;;5090699;28;20290;-46
2023/01/18 02:05:51;;;;;;;6.45;2.92;;;-1.20;99.90;;;;;;5094244;28;20044;-44
2023/01/18 02:08:23;;;;;;;8.05;2.67;;;-1.10;99.90;;;;;;5077491;28;20051;-46
2023/01/18 02:10:50;;;;;;;7.25;3.03;;;-1.20;99.90;;;;;;5095617;28;20043;-47
2023/01/18 02:13:17;;;;;;;10.27;3.25;;;-1.10;99.90;;;;;;5095603;28;20409;-46
2023/01/18 02:15:49;;;;;;;6.43;3.25;;;-1.00;99.90;;;;;;5095771;28;20151;-46
2023/01/18 02:18:44;;;;;;;8.18;2.67;;;-1.10;99.90;;;;;;5094163;28;20040;-45
2023/01/18 02:21:14;;;;;;;6.18;3.00;;;-1.10;99.90;;;;;;5082377;28;20131;-46
2023/01/18 02:24:40;;;;;;;4.97;2.42;;;-1.20;99.90;;;;;;5095238;28;20054;-45
2023/01/18 02:27:11;;;;;;;4.10;2.22;;;-1.20;99.90;;;;;;5034730;28;20074;-46
2023/01/18 02:29:51;;;;;;;9.07;2.30;;;-1.20;99.90;;;;;;5034633;28;20568;-46
2023/01/18 02:32:54;;;;;;;6.45;2.70;;;-1.20;99.90;;;;;;5016972;28;20609;-45
2023/01/18 02:35:40;;;;;;;6.22;2.78;;;-1.20;99.90;;;;;;5034145;28;20048;-47
2023/01/18 02:38:08;;;;;;;7.95;2.67;;;-1.20;99.90;;;;;;5051296;28;20332;-47
2023/01/18 02:40:45;;;;;;;7.78;2.40;;;-1.30;99.90;;;;;;5051882;28;20127;-48
2023/01/18 02:48:45;;;;;;;3.10;2.03;;;-1.30;99.90;;;;;;5051685;28;20142;-45
2023/01/18 02:51:11;;;;;;;4.88;2.15;;;-1.20;99.90;;;;;;5051134;28;20322;-45
2023/01/18 02:53:42;;;;;;;4.20;1.75;;;-1.30;99.90;;;;;;5051636;28;20540;-44
2023/01/18 02:56:17;;;;;;;6.13;3.00;;;-1.30;99.90;;;;;;5033957;28;20615;-45
2023/01/18 02:59:00;;;;;;;5.82;2.63;;;-1.30;99.90;;;;;;5035514;28;20109;-45
2023/01/18 03:01:33;;;;;;;10.90;3.22;;;-1.30;99.90;;;;;;5048670;28;20725;-47
2023/01/18 03:04:09;;;;;;;10.65;2.30;;;-1.30;99.90;;;;;;5093717;28;20126;-46
2023/01/18 03:06:36;;;;;;;8.15;2.55;;;-1.30;99.90;;;;;;5092725;28;20135;-45
2023/01/18 03:09:02;;;;;;;9.15;2.60;;;-1.30;99.90;;;;;;5095075;28;20052;-46
2023/01/18 03:11:38;;;;;;;5.10;2.13;;;-1.30;99.90;;;;;;5093565;28;20054;-46
2023/01/18 03:14:26;;;;;;;4.18;2.17;;;-1.30;99.90;;;;;;5094446;28;20059;-45
2023/01/18 03:17:06;;;;;;;3.30;2.28;;;-1.30;99.90;;;;;;5092932;28;20047;-45
2023/01/18 03:20:06;;;;;;;6.15;2.00;;;-1.20;99.90;;;;;;5075390;28;20068;-45
2023/01/18 03:25:33;;;;;;;9.77;2.58;;;-1.30;99.90;;;;;;5093559;28;20591;-44
2023/01/18 03:33:45;;;;;;;4.72;3.13;;;-1.60;99.90;;;;;;5079101;28;20516;-45
2023/01/18 03:36:26;;;;;;;6.18;3.30;;;-1.70;99.90;;;;;;5085247;28;20078;-47
2023/01/18 03:38:57;;;;;;;8.25;3.70;;;-1.70;99.90;;;;;;5075998;28;20055;-46
2023/01/18 03:41:27;;;;;;;8.45;4.05;;;-1.80;99.90;;;;;;5075013;28;20079;-46
2023/01/18 03:43:58;;;;;;;7.05;3.47;;;-1.80;99.90;;;;;;5078294;28;20048;-45
2023/01/18 03:46:28;;;;;;;5.55;3.55;;;-1.80;99.90;;;;;;5097403;28;20052;-47
2023/01/18 03:48:54;;;;;;;6.38;3.58;;;-1.90;99.90;;;;;;5079988;28;20043;-46
2023/01/18 03:52:16;;;;;;;10.15;3.95;;;-2.00;99.90;;;;;;5096897;28;20318;-45
2023/01/18 03:54:52;;;;;;;6.07;3.85;;;-1.90;99.90;;;;;;4974007;28;20496;-47
2023/01/18 03:57:21;;;;;;;6.13;4.10;;;-2.00;99.90;;;;;;4985369;28;20144;-50
2023/01/18 03:59:47;;;;;;;6.85;3.75;;;-2.00;99.90;;;;;;4976297;28;20090;-50
2023/01/18 04:02:15;;;;;;;8.43;3.63;;;-2.00;99.90;;;;;;4974467;28;20070;-47
2023/01/18 04:04:41;;;;;;;7.70;3.67;;;-1.80;99.90;;;;;;4973759;28;20085;-47
2023/01/18 04:07:07;;;;;;;8.57;3.78;;;-1.70;99.90;;;;;;4974964;28;20444;-46
2023/01/18 04:09:32;;;;;;;5.57;3.55;;;-1.70;99.90;;;;;;4974871;28;20465;-50
2023/01/18 04:11:58;;;;;;;8.32;3.83;;;-1.70;99.90;;;;;;4973708;28;20094;-48
2023/01/18 04:14:24;;;;;;;8.85;3.53;;;-1.80;99.90;;;;;;4985745;28;20507;-46
2023/01/18 04:16:49;;;;;;;9.25;3.72;;;-1.70;99.90;;;;;;4968632;28;20468;-47
2023/01/18 04:19:16;;;;;;;5.97;3.85;;;-1.80;99.90;;;;;;4974228;28;20061;-46
2023/01/18 04:21:41;;;;;;;8.43;3.42;;;-1.70;99.90;;;;;;4986088;28;20068;-46
2023/01/18 04:24:07;;;;;;;7.93;3.47;;;-1.80;99.90;;;;;;4981015;28;20058;-47
2023/01/18 04:26:33;;;;;;;8.07;4.32;;;-1.70;99.90;;;;;;4981925;28;20050;-48
2023/01/18 04:28:59;;;;;;;7.40;3.92;;;-1.80;99.90;;;;;;5004370;28;20061;-45
2023/01/18 04:31:25;;;;;;;8.98;4.30;;;-1.90;99.90;;;;;;5060093;28;20104;-47
2023/01/18 04:33:51;;;;;;;9.40;4.18;;;-1.90;99.90;;;;;;5097846;28;20431;-47
2023/01/18 04:36:18;;;;;;;7.72;3.97;;;-1.80;99.90;;;;;;5097017;28;20074;-48
2023/01/18 04:38:44;;;;;;;9.05;4.13;;;-1.90;99.90;;;;;;5098091;28;20615;-46
2023/01/18 04:41:10;;;;;;;8.40;4.68;;;-1.80;99.90;;;;;;5078688;28;20406;-47
2023/01/18 04:43:36;;;;;;;9.63;5.20;;;-1.80;99.90;;;;;;5079410;28;20043;-47
2023/01/18 04:46:02;;;;;;;9.02;4.55;;;-1.80;99.90;;;;;;5078139;28;20414;-47
2023/01/18 04:48:27;;;;;;;10.00;4.53;;;-1.80;99.90;;;;;;5096779;28;20054;-47
2023/01/18 04:50:53;;;;;;;11.60;5.28;;;-1.90;99.90;;;;;;5096297;28;20515;-46
2023/01/18 04:53:20;;;;;;;9.55;5.03;;;-1.80;99.90;;;;;;5077314;28;20047;-46
2023/01/18 04:55:46;;;;;;;14.57;5.10;;;-1.90;99.90;;;;;;5078309;28;20066;-47
2023/01/18 04:58:11;;;;;;;8.18;5.72;;;-1.80;99.90;;;;;;5096718;28;20055;-48
2023/01/18 05:00:38;;;;;;;7.00;5.30;;;-1.80;99.90;;;;;;5096991;28;20597;-47
2023/01/18 05:03:08;;;;;;;8.15;5.85;;;-1.90;99.90;;;;;;5082412;28;20336;-46
2023/01/18 05:05:34;;;;;;;9.32;5.80;;;-1.80;99.90;;;;;;5095549;28;20048;-46
2023/01/18 05:08:00;;;;;;;13.20;5.65;;;-1.80;99.90;;;;;;5096945;28;20040;-47
2023/01/18 05:10:26;;;;;;;9.85;5.25;;;-1.80;99.90;;;;;;5097432;28;20050;-47
2023/01/18 05:12:51;;;;;;;13.43;5.80;;;-1.90;99.90;;;;;;5096632;28;20054;-47
2023/01/18 05:15:17;;;;;;;8.77;5.63;;;-1.80;99.90;;;;;;5096182;28;20367;-47
2023/01/18 05:17:43;;;;;;;10.13;5.47;;;-1.80;99.90;;;;;;5097506;28;20044;-47
2023/01/18 05:20:10;;;;;;;10.07;6.05;;;-1.80;99.90;;;;;;5097173;28;20081;-46
2023/01/18 05:22:36;;;;;;;13.88;5.47;;;-1.80;99.90;;;;;;5078172;28;20055;-48
2023/01/18 05:25:03;;;;;;;13.15;6.18;;;-1.80;99.90;;;;;;5096273;28;20078;-46
2023/01/18 05:27:29;;;;;;;11.15;5.65;;;-1.70;99.90;;;;;;5096250;28;20521;-46
2023/01/18 05:29:55;;;;;;;12.32;5.90;;;-1.80;99.90;;;;;;5096602;28;20051;-47
2023/01/18 05:32:20;;;;;;;10.20;5.97;;;-1.80;99.90;;;;;;5096199;28;20163;-45
2023/01/18 05:34:46;;;;;;;10.50;6.40;;;-1.80;99.90;;;;;;5095973;28;20157;-47
2023/01/18 05:37:12;;;;;;;10.82;6.68;;;-1.80;99.90;;;;;;5095354;28;20039;-48
2023/01/18 05:39:37;;;;;;;12.77;7.35;;;-1.90;99.90;;;;;;5096090;28;20432;-48
2023/01/18 05:42:04;;;;;;;12.52;7.07;;;-1.80;99.90;;;;;;5095269;28;20051;-47
2023/01/18 05:44:30;;;;;;;12.50;7.65;;;-1.80;99.90;;;;;;5095729;28;20124;-46
2023/01/18 05:46:57;;;;;;;13.63;7.90;;;-1.80;99.90;;;;;;5095902;28;20827;-47
2023/01/18 05:49:23;;;;;;;13.00;7.60;;;-1.80;99.90;;;;;;5096220;28;20132;-47
2023/01/18 05:51:48;;;;;;;14.75;7.97;;;-1.80;99.90;;;;;;5094643;28;20566;-46
2023/01/18 05:54:14;;;;;;;12.10;8.10;;;-1.70;99.90;;;;;;5077058;28;20059;-45
2023/01/18 05:56:40;;;;;;;13.18;8.48;;;-1.70;99.90;;;;;;5095634;28;20081;-48
2023/01/18 05:59:06;;;;;;;15.43;8.35;;;-1.80;99.90;;;;;;5076691;28;20159;-48
2023/01/18 06:01:32;;;;;;;11.70;7.60;;;-1.70;99.90;;;;;;5094565;28;20047;-47
2023/01/18 06:03:58;;;;;;;15.38;8.70;;;-1.60;99.90;;;;;;5094980;28;20562;-46
2023/01/18 06:06:24;;;;;;;16.15;8.68;;;-1.70;99.90;;;;;;5093233;28;20051;-47
2023/01/18 06:08:49;;;;;;;12.88;8.27;;;-1.60;99.90;;;;;;5095234;28;20104;-46
2023/01/18 06:11:15;;;;;;;15.77;8.77;;;-1.50;99.90;;;;;;5094890;28;20051;-46
2023/01/18 06:13:40;;;;;;;18.42;8.18;;;-1.50;99.90;;;;;;5095148;28;20144;-46
2023/01/18 06:16:06;;;;;;;13.55;8.65;;;-1.50;99.90;;;;;;5081606;28;20491;-47
2023/01/18 06:18:32;;;;;;;15.15;8.85;;;-1.30;99.90;;;;;;5081880;28;20054;-47
2023/01/18 06:21:00;;;;;;;16.20;8.68;;;-1.30;99.90;;;;;;5093995;28;20054;-46
2023/01/18 06:23:27;;;;;;;15.30;7.72;;;-1.20;99.90;;;;;;5095294;28;20097;-49
2023/01/18 06:25:52;;;;;;;13.73;7.80;;;-1.10;99.90;;;;;;5094467;28;20269;-46
2023/01/18 06:28:18;;;;;;;12.63;8.73;;;-1.30;99.90;;;;;;5094869;28;20406;-47
2023/01/18 06:30:46;;;;;;;13.40;7.90;;;-1.10;99.90;;;;;;5094901;28;20048;-47
2023/01/18 06:33:13;;;;;;;14.00;8.00;;;-1.20;99.90;;;;;;5094839;28;20569;-46
2023/01/18 06:35:40;;;;;;;14.77;8.15;;;-1.10;99.90;;;;;;5094626;28;20129;-46
2023/01/18 06:38:06;;;;;;;19.10;7.78;;;-1.20;99.90;;;;;;5094444;28;20123;-47
2023/01/18 06:40:32;;;;;;;15.70;8.68;;;-1.00;99.90;;;;;;5077045;28;20047;-46
2023/01/18 06:42:58;;;;;;;13.07;8.07;;;-1.10;99.90;;;;;;5075714;28;20047;-48
2023/01/18 06:45:24;;;;;;;17.48;8.05;;;-1.10;99.90;;;;;;5094173;28;20051;-46
2023/01/18 06:47:51;;;;;;;14.20;7.05;;;-1.10;99.90;;;;;;5093581;28;20062;-47
2023/01/18 06:50:18;;;;;;;12.20;7.72;;;-1.00;99.90;;;;;;5093859;28;20051;-46
2023/01/18 06:52:44;;;;;;;14.68;8.25;;;-1.20;99.90;;;;;;5093338;28;20055;-43
2023/01/18 06:55:11;;;;;;;12.15;7.88;;;-1.10;99.90;;;;;;5093630;28;20055;-45
2023/01/18 06:57:37;;;;;;;14.50;8.40;;;-1.20;99.90;;;;;;5093812;28;20514;-45
2023/01/18 07:00:05;;;;;;;13.63;8.10;;;-1.10;99.90;;;;;;5093747;28;20047;-44
2023/01/18 07:02:34;;;;;;;15.60;8.68;;;-1.20;99.90;;;;;;5093140;28;20558;-44
2023/01/18 07:05:00;;;;;;;16.83;8.57;;;-1.20;99.90;;;;;;5093439;28;20440;-44
2023/01/18 07:07:26;;;;;;;17.67;10.55;;;-1.20;99.90;;;;;;5092279;28;20646;-45
2023/01/18 07:09:52;;;;;;;13.55;9.50;;;-1.30;99.90;;;;;;5094419;28;20052;-45
2023/01/18 07:12:18;;;;;;;14.32;9.30;;;-1.30;99.90;;;;;;5092956;28;20079;-45
2023/01/18 07:14:43;;;;;;;15.65;9.43;;;-1.20;99.90;;;;;;5093815;28;20471;-45
2023/01/18 07:17:09;;;;;;;12.63;8.55;;;-1.20;99.90;;;;;;5093529;28;20126;-46
2023/01/18 07:19:35;;;;;;;15.40;10.02;;;-1.30;99.90;;;;;;5093926;28;20122;-45
2023/01/18 07:22:01;;;;;;;13.88;9.70;;;-1.30;99.90;;;;;;5093002;28;20079;-45
2023/01/18 07:24:27;;;;;;;16.75;10.98;;;-1.30;99.90;;;;;;5057865;28;20497;-45
2023/01/18 07:26:53;;;;;;;13.70;10.40;;;-1.30;99.90;;;;;;5075949;28;20052;-45
2023/01/18 07:29:20;;;;;;;18.77;10.90;;;-1.30;99.90;;;;;;5075620;28;20075;-45
2023/01/18 07:31:46;;;;;;;16.00;10.32;;;-1.20;99.90;;;;;;5093590;28;20044;-46
2023/01/18 07:34:12;;;;;;;16.65;11.45;;;-1.20;99.90;;;;;;5093460;28;20118;-45
2023/01/18 07:36:40;;;;;;;16.63;10.93;;;-1.30;99.90;;;;;;5094109;28;20653;-46
2023/01/18 07:39:07;;;;;;;17.30;10.70;;;-1.30;99.90;;;;;;5094199;28;20047;-45
2023/01/18 07:41:33;;;;;;;17.60;11.02;;;-1.40;99.90;;;;;;5092939;28;20051;-45
2023/01/18 07:43:59;;;;;;;15.00;10.73;;;-1.30;99.90;;;;;;5093981;28;20051;-46
2023/01/18 07:46:25;;;;;;;21.58;12.52;;;-1.20;99.90;;;;;;5058088;28;20064;-45
2023/01/18 07:48:51;;;;;;;16.23;10.35;;;-1.30;99.90;;;;;;5075129;28;20677;-45
2023/01/18 07:51:18;;;;;;;16.08;11.15;;;-1.40;99.90;;;;;;5093038;28;20078;-46
2023/01/18 07:53:44;;;;;;;16.42;10.85;;;-1.40;99.90;;;;;;5076368;28;20055;-47
2023/01/18 07:56:16;;;;;;;17.42;10.25;;;-1.30;99.90;;;;;;5081919;28;20122;-45
2023/01/18 07:58:42;;;;;;;15.10;10.65;;;-1.30;99.90;;;;;;5073912;28;20569;-45
2023/01/18 08:01:16;;;;;;;17.02;12.32;;;-1.40;99.90;;;;;;5081376;28;20092;-45
2023/01/18 08:03:43;;;;;;;16.02;11.10;;;-1.30;99.90;;;;;;5077037;28;20142;-45
2023/01/18 08:06:12;;;;;;;17.05;11.50;;;-1.20;99.90;;;;;;5081698;28;20051;-45
2023/01/18 08:08:38;;;;;;;16.30;10.68;;;-1.30;99.90;;;;;;5092507;28;20039;-46
2023/01/18 08:11:05;;;;;;;16.95;11.45;;;-1.30;99.90;;;;;;5089973;28;20105;-45
2023/01/18 08:13:31;;;;;;;14.43;10.38;;;-1.30;99.90;;;;;;5092712;28;20050;-45
2023/01/18 08:16:02;;;;;;;15.43;10.45;;;-1.30;99.90;;;;;;5091720;28;20060;-46
2023/01/18 08:18:28;;;;;;;14.32;10.13;;;-1.20;99.90;;;;;;5078557;28;20041;-45
2023/01/18 08:20:54;;;;;;;14.48;9.07;;;-1.10;99.90;;;;;;5089341;28;20101;-46
2023/01/18 08:23:19;;;;;;;13.63;9.50;;;-1.10;99.90;;;;;;5073661;28;20047;-45
2023/01/18 08:25:46;;;;;;;17.33;11.45;;;-1.20;99.90;;;;;;5079509;28;20059;-45
2023/01/18 08:28:12;;;;;;;15.98;10.07;;;-1.00;99.90;;;;;;5086270;28;20073;-45
2023/01/18 08:30:40;;;;;;;17.67;9.80;;;-1.00;99.90;;;;;;5081435;28;20147;-47
2023/01/18 08:33:07;;;;;;;13.85;8.68;;;-0.90;99.90;;;;;;5067570;28;20454;-47
2023/01/18 08:35:39;;;;;;;12.75;9.27;;;-0.80;99.90;;;;;;5081798;28;20132;-45
2023/01/18 08:38:05;;;;;;;16.30;9.02;;;-0.70;99.90;;;;;;5096154;28;20122;-44
2023/01/18 08:40:31;;;;;;;19.42;9.68;;;-0.70;99.90;;;;;;5078142;28;20546;-45
2023/01/18 08:42:59;;;;;;;13.60;8.68;;;-0.50;99.90;;;;;;5095953;28;20055;-45
2023/01/18 08:45:25;;;;;;;14.38;9.40;;;-0.60;99.90;;;;;;5096525;28;20062;-45
2023/01/18 08:48:06;;;;;;;12.30;8.60;;;-0.40;99.90;;;;;;5096789;28;20051;-44
2023/01/18 08:50:32;;;;;;;12.75;8.82;;;-0.40;99.90;;;;;;5096043;28;20047;-48
2023/01/18 08:52:58;;;;;;;14.63;8.57;;;-0.30;99.90;;;;;;5096063;28;20136;-46
2023/01/18 08:55:25;;;;;;;12.05;8.27;;;-0.30;99.90;;;;;;5087511;28;20146;-44
2023/01/18 08:57:53;;;;;;;13.43;7.97;;;-0.20;99.90;;;;;;5073834;28;20093;-45
2023/01/18 09:00:21;;;;;;;11.38;8.63;;;-0.20;99.90;;;;;;5074872;28;20472;-44
2023/01/18 09:02:48;;;;;;;11.02;8.02;;;-0.20;99.90;;;;;;5057384;28;20050;-44
2023/01/18 09:05:14;;;;;;;9.77;8.25;;;-0.10;99.90;;;;;;5079331;28;20143;-45
2023/01/18 09:07:39;;;;;;;16.25;8.45;;;-0.10;99.90;;;;;;5095782;28;20409;-45
2023/01/18 09:10:07;;;;;;;13.85;8.70;;;0.00;99.90;;;;;;5095721;28;20039;-44
2023/01/18 09:12:34;;;;;;;13.45;8.07;;;-0.10;99.90;;;;;;5077714;28;20812;-47
2023/01/18 09:15:00;;;;;;;10.82;8.38;;;0.00;99.90;;;;;;5095256;28;20067;-46
2023/01/18 09:17:26;;;;;;;12.80;9.45;;;0.00;99.90;;;;;;5095741;28;20454;-46
2023/01/18 09:19:53;;;;;;;16.50;9.90;;;0.00;99.90;;;;;;5096168;28;20515;-45
2023/01/18 09:22:19;;;;;;;16.08;9.00;;;0.00;99.90;;;;;;5094894;28;20079;-46
2023/01/18 09:24:45;;;;;;;17.02;8.52;;;0.00;99.90;;;;;;5095164;28;20083;-46
2023/01/18 09:27:12;;;;;;;13.10;8.98;;;0.10;99.90;;;;;;5084037;28;20151;-45
2023/01/18 09:29:38;;;;;;;12.25;9.38;;;0.10;99.90;;;;;;5085549;28;20047;-45
2023/01/18 09:32:06;;;;;;;11.65;9.30;;;0.10;99.90;;;;;;5060218;28;20089;-45
2023/01/18 09:34:33;;;;;;;13.90;9.57;;;0.10;99.90;;;;;;5084362;28;20063;-46
2023/01/18 09:37:00;;;;;;;12.23;9.55;;;0.20;99.90;;;;;;5090998;28;20044;-44
2023/01/18 09:39:26;;;;;;;13.15;9.75;;;0.20;99.90;;;;;;5095935;28;20574;-44
2023/01/18 09:41:56;;;;;;;12.73;8.57;;;0.20;99.90;;;;;;5064063;28;20456;-45
2023/01/18 09:44:24;;;;;;;12.98;9.55;;;0.30;99.90;;;;;;5077754;28;20085;-45
2023/01/18 09:46:58;;;;;;;15.35;10.43;;;0.30;99.90;;;;;;5096454;28;20054;-44
2023/01/18 09:49:35;;;;;;;12.60;9.73;;;0.40;99.90;;;;;;5094932;28;20051;-45
2023/01/18 09:52:22;;;;;;;17.25;10.20;;;0.40;99.90;;;;;;5095727;28;20051;-45
2023/01/18 09:55:15;;;;;;;17.48;10.63;;;0.50;99.90;;;;;;5092665;28;20044;-46
2023/01/18 09:57:52;;;;;;;15.75;9.82;;;0.50;99.90;;;;;;5089466;28;20494;-44
2023/01/18 10:00:27;;;;;;;16.77;10.60;;;0.60;99.90;;;;;;5093351;28;20142;-48
2023/01/18 10:02:59;;;;;;;18.00;10.48;;;0.60;99.90;;;;;;5091319;28;20564;-44
2023/01/18 10:05:33;;;;;;;19.92;11.20;;;0.70;99.90;;;;;;5089561;28;20146;-45
2023/01/18 10:08:12;;;;;;;17.15;10.80;;;0.70;99.90;;;;;;5082747;28;20061;-44
2023/01/18 10:11:13;;;;;;;16.52;11.13;;;0.70;99.90;;;;;;5074818;28;20055;-45
2023/01/18 10:14:02;;;;;;;19.02;10.95;;;0.80;99.90;;;;;;5094748;28;20056;-46
2023/01/18 10:16:29;;;;;;;15.32;11.05;;;0.90;99.90;;;;;;5084007;28;20480;-45
2023/01/18 10:18:58;;;;;;;16.60;11.13;;;0.90;99.90;;;;;;5095725;28;20125;-45
2023/01/18 10:21:41;;;;;;;15.65;10.48;;;1.00;99.90;;;;;;5095384;28;20394;-46
2023/01/18 10:24:36;;;;;;;16.52;10.18;;;1.00;99.90;;;;;;5092734;28;20059;-45
2023/01/18 10:27:30;;;;;;;18.58;11.57;;;1.10;99.90;;;;;;5087796;28;20060;-45
2023/01/18 10:30:13;;;;;;;16.13;9.75;;;1.20;99.90;;;;;;5094967;28;20039;-45
2023/01/18 10:32:51;;;;;;;15.32;9.38;;;1.20;99.90;;;;;;5082680;28;20063;-44
2023/01/18 10:35:31;;;;;;;12.32;8.02;;;1.30;99.90;;;;;;5075195;28;20044;-45
2023/01/18 10:38:06;;;;;;;14.43;8.98;;;1.30;99.90;;;;;;5082188;28;20069;-49
2023/01/18 10:40:33;;;;;;;12.27;8.32;;;1.30;99.90;;;;;;5093096;28;20046;-46
2023/01/18 10:43:01;;;;;;;14.50;8.73;;;1.40;99.90;;;;;;5094705;28;20054;-44
2023/01/18 10:45:34;;;;;;;16.67;9.15;;;1.40;99.90;;;;;;5093759;28;20173;-45
2023/01/18 10:48:27;;;;;;;13.35;8.20;;;1.50;99.90;;;;;;5056506;28;20043;-45
2023/01/18 10:51:05;;;;;;;12.80;8.23;;;1.50;99.90;;;;;;5089908;28;20520;-45
2023/01/18 10:53:36;;;;;;;12.52;6.93;;;1.60;99.90;;;;;;5093361;28;20093;-45
2023/01/18 10:56:18;;;;;;;9.82;7.25;;;1.60;99.90;;;;;;5092843;28;20040;-48
2023/01/18 10:58:49;;;;;;;10.98;6.97;;;1.70;99.90;;;;;;5084436;28;20078;-46
2023/01/18 11:01:21;;;;;;;13.00;8.00;;;1.70;99.90;;;;;;5088730;28;20066;-47
2023/01/18 11:04:10;;;;;;;11.82;7.88;;;1.80;99.90;;;;;;5093373;28;20040;-46
2023/01/18 11:06:56;;;;;;;11.02;7.40;;;1.90;99.90;;;;;;4968614;28;20057;-47
2023/01/18 11:09:33;;;;;;;15.43;7.50;;;1.90;99.90;;;;;;4985760;28;20057;-46
2023/01/18 11:12:40;;;;;;;13.68;7.75;;;1.90;99.90;;;;;;4989108;28;20061;-47
2023/01/18 11:15:14;;;;;;;11.57;7.00;;;2.00;99.90;;;;;;4987788;28;20053;-48
2023/01/18 11:17:45;;;;;;;11.77;7.38;;;2.00;99.90;;;;;;4995555;28;20081;-48
2023/01/18 11:20:20;;;;;;;13.48;7.88;;;2.10;99.90;;;;;;4958958;28;20045;-49
2023/01/18 11:23:09;;;;;;;13.57;8.80;;;2.00;99.90;;;;;;4991449;28;20564;-49
2023/01/18 11:25:41;;;;;;;12.48;7.50;;;2.10;99.90;;;;;;4990424;28;20137;-49
2023/01/18 11:28:27;;;;;;;10.88;6.80;;;2.10;99.90;;;;;;4975314;28;20124;-48
2023/01/18 11:31:17;;;;;;;15.75;7.65;;;2.10;99.90;;;;;;4990450;28;20532;-48
2023/01/18 11:33:56;;;;;;;10.85;7.20;;;2.10;99.90;;;;;;4991234;28;20052;-47
2023/01/18 11:36:43;;;;;;;13.05;7.03;;;2.10;99.90;;;;;;4991383;28;20057;-45
2023/01/18 11:39:21;;;;;;;11.75;7.72;;;2.10;99.90;;;;;;4990237;28;20064;-46
2023/01/18 11:41:48;;;;;;;11.27;6.60;;;2.10;99.90;;;;;;4990125;28;20422;-46
2023/01/18 11:44:29;;;;;;;12.50;7.93;;;2.20;99.90;;;;;;5060257;28;20048;-46
2023/01/18 11:47:02;;;;;;;12.13;6.70;;;2.20;99.90;;;;;;5058324;28;20051;-46
2023/01/18 11:49:42;;;;;;;12.32;7.57;;;2.30;99.90;;;;;;5094110;28;20185;-45
2023/01/18 11:52:33;;;;;;;12.77;7.65;;;2.40;99.90;;;;;;5083959;28;20036;-46
2023/01/18 11:55:06;;;;;;;9.90;6.60;;;2.40;99.90;;;;;;5090505;28;20481;-47
2023/01/18 11:57:32;;;;;;;12.23;7.73;;;2.50;99.90;;;;;;5087156;28;20422;-48
2023/01/18 11:59:58;;;;;;;11.85;7.15;;;2.50;99.90;;;;;;5090242;28;20031;-46
2023/01/18 12:02:35;;;;;;;11.68;7.03;;;2.50;99.90;;;;;;5080138;28;20047;-47
2023/01/18 12:05:16;;;;;;;11.18;6.95;;;2.50;99.90;;;;;;5083132;28;20058;-48
2023/01/18 12:07:54;;;;;;;8.50;6.63;;;2.40;99.90;;;;;;5097907;28;20394;-47
2023/01/18 12:10:22;;;;;;;8.57;6.63;;;2.40;99.90;;;;;;5097507;28;20048;-48
2023/01/18 12:13:25;;;;;;;8.30;6.22;;;2.40;99.90;;;;;;5090940;28;20040;-46
2023/01/18 12:16:12;;;;;;;15.35;7.50;;;2.40;99.90;;;;;;5093510;28;20071;-50
2023/01/18 12:19:07;;;;;;;8.95;6.40;;;2.50;99.90;;;;;;5095407;28;20308;-48
2023/01/18 12:21:53;;;;;;;9.70;5.75;;;2.60;99.90;;;;;;4975577;28;20445;-46
2023/01/18 12:24:33;;;;;;;8.70;5.95;;;2.60;99.90;;;;;;4944053;28;20137;-47
2023/01/18 12:27:30;;;;;;;9.73;5.82;;;2.60;99.90;;;;;;4966516;28;20059;-48
2023/01/18 12:30:13;;;;;;;12.85;6.00;;;2.60;99.90;;;;;;4978948;28;20614;-49
2023/01/18 12:32:56;;;;;;;6.70;5.83;;;2.60;99.90;;;;;;4978123;28;20154;-48
2023/01/18 12:35:49;;;;;;;10.23;6.18;;;2.70;99.90;;;;;;4985615;28;20053;-48
2023/01/18 12:38:31;;;;;;;9.85;5.60;;;2.70;99.90;;;;;;4989020;28;20421;-47
2023/01/18 12:41:19;;;;;;;8.07;5.88;;;2.80;99.90;;;;;;4972595;28;20369;-47
2023/01/18 12:43:59;;;;;;;12.95;5.80;;;2.80;99.90;;;;;;4988259;28;20123;-49
2023/01/18 12:46:35;;;;;;;11.02;5.25;;;2.90;99.90;;;;;;4980828;28;20065;-46
2023/01/18 12:49:10;;;;;;;8.23;5.68;;;3.00;99.90;;;;;;4984407;28;20505;-47
2023/01/18 12:51:37;;;;;;;10.80;5.82;;;3.00;99.90;;;;;;4959146;28;20080;-46
2023/01/18 12:54:25;;;;;;;9.05;5.43;;;3.00;99.90;;;;;;4967415;28;20440;-46
2023/01/18 12:56:55;;;;;;;12.15;5.78;;;3.00;99.90;;;;;;4981461;28;20136;-49
2023/01/18 12:59:44;;;;;;;9.38;5.70;;;3.00;99.90;;;;;;5093553;28;20040;-47
2023/01/18 13:02:10;;;;;;;10.18;5.82;;;3.00;99.90;;;;;;5084774;28;20077;-46
2023/01/18 13:04:45;;;;;;;9.80;5.65;;;3.00;99.90;;;;;;5094835;28;20054;-48
2023/01/18 13:07:14;;;;;;;8.55;5.32;;;3.00;99.90;;;;;;5095096;28;20123;-46
2023/01/18 13:09:45;;;;;;;9.63;5.35;;;3.10;99.90;;;;;;5095805;28;20474;-46
2023/01/18 13:12:12;;;;;;;7.05;5.05;;;3.00;99.90;;;;;;5095774;28;20043;-48
2023/01/18 13:15:03;;;;;;;10.60;5.22;;;3.00;99.90;;;;;;5094517;28;20395;-46
2023/01/18 13:17:41;;;;;;;8.75;5.22;;;3.00;99.90;;;;;;5031662;28;20057;-45
2023/01/18 13:20:09;;;;;;;8.57;5.93;;;3.00;99.90;;;;;;5032061;28;20060;-47
2023/01/18 13:23:10;;;;;;;11.05;5.57;;;3.00;99.90;;;;;;5031719;28;20060;-47
2023/01/18 13:26:02;;;;;;;9.30;5.35;;;3.00;99.90;;;;;;5026116;28;20057;-49
2023/01/18 13:28:28;;;;;;;7.53;4.70;;;3.00;99.90;;;;;;5031563;28;20125;-45
2023/01/18 13:30:59;;;;;;;11.18;6.05;;;3.00;99.90;;;;;;5015276;28;20885;-46
2023/01/18 13:33:55;;;;;;;8.52;5.00;;;3.00;99.90;;;;;;5030756;28;20049;-47
2023/01/18 13:36:20;;;;;;;7.03;5.22;;;2.90;99.90;;;;;;5011806;28;20052;-47
2023/01/18 13:38:59;;;;;;;8.50;5.70;;;2.90;99.90;;;;;;5032318;28;20041;-49